Time;durP1;ratioP1;P1;durP2;ratioP2;P2;SDS_P1;SDS_P2;PMS_P1;PMS_P2;Temp;Humidity;BMP_temperature;BMP_pressure;BME280_temperature;BME280_humidity;BME280_pressure;Samples;Min_cycle;Max_cycle;Signal;HPM_P1;HPM_P2
2023/11/14 00:05:03;;;;;;;17.60;12.20;;;;;;;2.79;100.00;97929.33;436646;1251;139917;-66
2023/11/14 00:15:11;;;;;;;17.20;12.70;;;;;;;2.73;100.00;97941.58;436304;1251;138858;-68
2023/11/14 00:25:17;;;;;;;15.30;11.70;;;;;;;2.68;100.00;97860.50;436145;1253;139758;-68
2023/11/14 00:35:24;;;;;;;19.30;13.90;;;;;;;2.64;100.00;97812.14;436546;1250;139384;-67
2023/11/14 00:45:30;;;;;;;16.20;12.80;;;;;;;2.67;100.00;97782.13;436038;1250;139415;-67
2023/11/14 00:55:37;;;;;;;15.50;12.80;;;;;;;2.69;100.00;97754.50;436180;1254;139852;-68
2023/11/14 01:05:43;;;;;;;18.80;14.50;;;;;;;2.78;100.00;97768.15;436558;1249;139044;-68
2023/11/14 01:15:49;;;;;;;19.10;14.30;;;;;;;2.90;100.00;97767.78;437534;1251;138990;-68
2023/11/14 01:25:56;;;;;;;18.80;13.00;;;;;;;3.04;100.00;97759.65;436404;1252;138978;-68
2023/11/14 01:36:02;;;;;;;13.90;12.50;;;;;;;3.18;100.00;97738.73;436128;1254;140010;-68
2023/11/14 01:46:09;;;;;;;18.00;14.30;;;;;;;3.35;100.00;97727.45;437327;1251;139494;-67
2023/11/14 01:56:16;;;;;;;16.30;12.20;;;;;;;3.57;100.00;97722.40;436111;1254;139006;-67
2023/11/14 02:06:22;;;;;;;15.30;12.40;;;;;;;3.82;100.00;97710.41;435917;1253;139194;-67
2023/11/14 02:16:44;;;;;;;14.80;13.20;;;;;;;4.28;100.00;97716.14;435759;1251;139069;-68
2023/11/14 02:26:51;;;;;;;13.40;10.10;;;;;;;4.69;100.00;97723.06;436604;1249;138814;-68
2023/11/14 02:36:57;;;;;;;18.50;13.50;;;;;;;4.94;100.00;97726.56;436371;1253;139087;-67
2023/11/14 02:47:04;;;;;;;11.40;9.90;;;;;;;5.10;100.00;97727.85;435933;1250;139840;-67
2023/11/14 02:57:12;;;;;;;12.40;11.10;;;;;;;5.28;100.00;97737.13;436226;1250;139512;-67
2023/11/14 03:07:18;;;;;;;12.00;9.90;;;;;;;5.46;100.00;97742.25;436461;1254;140977;-68
2023/11/14 03:17:24;;;;;;;9.00;8.00;;;;;;;5.70;100.00;97737.11;439390;1250;138839;-67
2023/11/14 03:27:31;;;;;;;8.60;7.50;;;;;;;5.95;100.00;97727.27;439256;1250;138523;-65
2023/11/14 03:37:38;;;;;;;8.40;7.20;;;;;;;6.20;100.00;97758.14;436371;1253;139069;-67
2023/11/14 03:47:44;;;;;;;9.40;8.00;;;;;;;6.44;100.00;97772.46;435966;1250;139095;-68
2023/11/14 03:57:51;;;;;;;11.60;6.80;;;;;;;6.63;100.00;97777.98;436333;1250;139080;-68
2023/11/14 04:07:57;;;;;;;8.60;7.20;;;;;;;6.76;100.00;97777.83;436554;1252;140913;-67
2023/11/14 04:18:03;;;;;;;9.70;8.70;;;;;;;6.88;100.00;97793.27;436011;1250;139612;-67
2023/11/14 04:28:10;;;;;;;12.00;8.30;;;;;;;6.97;100.00;97794.16;436056;1249;139525;-67
2023/11/14 04:38:17;;;;;;;9.40;6.50;;;;;;;7.04;100.00;97794.85;436313;1253;139448;-68
2023/11/14 04:48:23;;;;;;;9.20;7.90;;;;;;;7.09;100.00;97804.36;436308;1250;138505;-67
2023/11/14 04:58:29;;;;;;;8.50;5.70;;;;;;;7.14;100.00;97827.70;436177;1251;138893;-67
2023/11/14 05:08:38;;;;;;;7.50;6.40;;;;;;;7.18;100.00;97843.22;436114;1250;139177;-67
2023/11/14 05:18:46;;;;;;;8.30;4.90;;;;;;;7.22;100.00;97857.15;436074;1250;140274;-67
2023/11/14 05:28:53;;;;;;;8.00;6.20;;;;;;;7.27;100.00;97870.29;438721;1253;141039;-68
2023/11/14 05:38:59;;;;;;;9.70;3.40;;;;;;;7.31;100.00;97878.59;439284;1250;138516;-68
2023/11/14 05:49:06;;;;;;;7.20;3.80;;;;;;;7.34;100.00;97887.05;439289;1250;138792;-68
2023/11/14 05:59:13;;;;;;;8.20;3.20;;;;;;;7.38;100.00;97897.88;436354;1250;138790;-68
2023/11/14 06:09:19;;;;;;;8.10;3.40;;;;;;;7.44;100.00;97916.70;436048;1253;138500;-68
2023/11/14 06:19:27;;;;;;;5.90;1.90;;;;;;;7.51;100.00;97936.20;436000;1250;140107;-69
2023/11/14 06:29:34;;;;;;;6.30;2.80;;;;;;;7.56;100.00;97955.15;436150;1253;139936;-68
2023/11/14 06:39:42;;;;;;;5.80;2.20;;;;;;;7.59;100.00;97961.54;437409;1253;139125;-67
2023/11/14 06:49:48;;;;;;;6.10;2.40;;;;;;;7.67;100.00;97977.14;436264;1254;138778;-68
2023/11/14 06:59:54;;;;;;;7.40;1.80;;;;;;;7.74;100.00;97973.94;435836;1253;140352;-68
2023/11/14 07:10:01;;;;;;;8.20;2.60;;;;;;;7.85;100.00;97977.66;435936;1250;139408;-69
2023/11/14 07:20:10;;;;;;;5.60;2.40;;;;;;;7.99;100.00;97984.23;438867;1251;138480;-65
2023/11/14 07:30:17;;;;;;;7.40;2.70;;;;;;;8.14;100.00;97988.80;436261;1255;139892;-62
2023/11/14 07:40:23;;;;;;;8.20;3.20;;;;;;;8.51;100.00;97981.86;435881;1253;141433;-62
2023/11/14 07:50:30;;;;;;;8.10;2.10;;;;;;;10.64;100.00;97971.14;436637;1250;139757;-63
2023/11/14 08:00:36;;;;;;;5.90;2.40;;;;;;;11.74;100.00;97967.15;436996;1254;139733;-79
2023/11/14 08:10:43;;;;;;;5.90;3.20;;;;;;;11.94;100.00;97978.01;439654;1253;139081;-68
2023/11/14 08:20:49;;;;;;;5.10;2.50;;;;;;;13.74;100.00;97990.67;437115;1253;139129;-67
2023/11/14 08:30:55;;;;;;;3.70;2.20;;;;;;;14.48;100.00;98000.49;436616;1254;138922;-73
2023/11/14 08:41:02;;;;;;;7.10;3.00;;;;;;;14.26;100.00;98000.52;436457;1250;139328;-67
2023/11/14 08:51:10;;;;;;;3.20;2.10;;;;;;;16.27;97.63;97998.80;436835;1251;140707;-68
2023/11/14 09:01:14;;;;;;;;;;;;;;;14.74;93.60;98017.47;436722;1251;138551;-73
2023/11/14 09:11:21;;;;;;;6.60;3.20;;;;;;;13.32;93.69;98035.65;439305;1255;124487;-72
2023/11/14 09:21:27;;;;;;;7.00;2.70;;;;;;;12.01;94.20;98041.59;439864;1253;138545;-76
2023/11/14 09:31:34;;;;;;;13.70;3.70;;;;;;;10.96;96.14;98035.05;436118;1254;138714;-69
2023/11/14 09:41:41;;;;;;;4.50;1.70;;;;;;;10.42;98.96;98037.91;438601;1255;138968;-71
2023/11/14 09:51:51;;;;;;;6.10;2.20;;;;;;;10.17;99.84;98039.67;436260;1251;140080;-67
2023/11/14 10:01:58;;;;;;;7.10;2.70;;;;;;;9.91;100.00;98038.24;437645;1253;139023;-72
2023/11/14 10:12:06;;;;;;;6.40;3.30;;;;;;;10.01;100.00;98035.77;440226;1253;140057;-73
2023/11/14 10:22:28;;;;;;;8.50;3.70;;;;;;;10.32;100.00;98023.50;439202;1253;139753;-71
2023/11/14 10:32:35;;;;;;;8.80;4.00;;;;;;;10.44;100.00;98020.88;437979;1251;140122;-69
2023/11/14 10:42:50;;;;;;;9.00;2.70;;;;;;;10.96;100.00;98015.44;437739;1251;141100;-87
2023/11/14 10:52:59;;;;;;;9.00;2.40;;;;;;;10.93;100.00;98019.70;439850;1254;141219;-70
2023/11/14 11:03:06;;;;;;;8.90;3.40;;;;;;;11.04;100.00;98005.27;439018;1254;138875;-73
2023/11/14 11:13:16;;;;;;;8.20;5.10;;;;;;;11.00;100.00;98012.60;436173;1253;139754;-67
2023/11/14 11:23:23;;;;;;;5.10;2.30;;;;;;;11.15;100.00;98005.30;436593;1254;139246;-67
2023/11/14 11:33:37;;;;;;;6.20;2.60;;;;;;;11.33;100.00;98010.58;436700;1253;138946;-61
2023/11/14 11:43:45;;;;;;;5.50;2.50;;;;;;;11.36;99.66;98007.48;436461;1254;139153;-68
2023/11/14 11:53:52;;;;;;;9.30;2.70;;;;;;;11.13;99.14;98011.31;435998;1253;187216;-71
2023/11/14 12:04:01;;;;;;;9.50;3.40;;;;;;;10.81;99.15;97999.13;439899;1253;139669;-71
2023/11/14 12:14:07;;;;;;;4.70;2.30;;;;;;;10.55;99.57;97992.69;439664;1251;138809;-71
2023/11/14 12:24:17;;;;;;;10.60;3.00;;;;;;;10.46;99.64;97976.83;439643;1254;138986;-73
2023/11/14 12:34:30;;;;;;;6.50;2.50;;;;;;;10.44;99.33;97984.00;439576;1253;139435;-75
2023/11/14 12:44:38;;;;;;;10.10;2.60;;;;;;;10.35;99.04;97980.23;439535;1254;138563;-61
2023/11/14 12:54:44;;;;;;;4.80;2.30;;;;;;;10.28;98.89;97980.86;435941;1252;139198;-63
2023/11/14 13:04:51;;;;;;;6.90;2.90;;;;;;;10.33;99.30;97971.82;435530;1251;138760;-60
2023/11/14 13:14:58;;;;;;;6.20;3.80;;;;;;;10.56;99.08;97978.42;436398;1254;138863;-62
2023/11/14 13:25:05;;;;;;;6.60;3.20;;;;;;;10.41;98.37;97982.30;436264;1251;138811;-66
2023/11/14 13:35:15;;;;;;;8.40;3.40;;;;;;;10.14;98.08;97978.20;435974;1253;139983;-60
2023/11/14 13:45:21;;;;;;;5.00;2.10;;;;;;;9.97;98.19;97958.20;435985;1254;138729;-64
2023/11/14 13:55:28;;;;;;;7.20;3.50;;;;;;;9.87;98.23;97962.23;435890;1254;138644;-67
2023/11/14 14:05:34;;;;;;;5.50;2.60;;;;;;;9.79;98.35;97950.59;436346;1251;138918;-65
2023/11/14 14:15:41;;;;;;;7.90;3.00;;;;;;;9.84;98.58;97944.62;437559;1251;139362;-71
2023/11/14 14:25:48;;;;;;;6.10;3.70;;;;;;;9.76;98.41;97941.10;440559;1251;138901;-76
2023/11/14 14:35:55;;;;;;;8.80;3.60;;;;;;;9.66;98.44;97931.69;440639;1251;139172;-69
2023/11/14 14:46:01;;;;;;;7.70;3.10;;;;;;;9.62;98.66;97942.38;439630;1251;141948;-61
2023/11/14 14:56:09;;;;;;;7.80;2.30;;;;;;;9.63;98.64;97929.97;436339;1254;139526;-69
2023/11/14 15:06:14;;;;;;;;;;;;;;;9.65;98.42;97936.13;436992;1251;138974;-66
2023/11/14 15:16:21;;;;;;;6.70;3.50;;;;;;;9.67;98.11;97934.91;436222;1251;126231;-64
2023/11/14 15:26:28;;;;;;;7.80;3.30;;;;;;;9.56;97.81;97931.81;436681;1250;138575;-69
2023/11/14 15:36:35;;;;;;;6.90;3.10;;;;;;;9.41;97.81;97939.06;437318;1251;139103;-73
2023/11/14 15:46:41;;;;;;;8.10;4.30;;;;;;;9.26;97.91;97941.33;440017;1250;141323;-69
2023/11/14 15:56:47;;;;;;;9.40;5.00;;;;;;;9.06;98.16;97937.29;436671;1251;138646;-70
2023/11/14 16:06:54;;;;;;;11.00;5.50;;;;;;;8.94;98.80;97939.80;436736;1251;139175;-68
2023/11/14 16:17:00;;;;;;;10.90;4.60;;;;;;;8.86;99.04;97947.11;437424;1250;138818;-73
2023/11/14 16:27:07;;;;;;;11.80;4.50;;;;;;;8.82;99.40;97957.01;435926;1250;139884;-64
2023/11/14 16:37:13;;;;;;;9.80;4.60;;;;;;;8.79;99.49;97964.23;435447;1253;139949;-63
2023/11/14 16:47:20;;;;;;;13.30;6.10;;;;;;;8.78;99.49;97963.29;435408;1250;139083;-63
2023/11/14 16:57:27;;;;;;;14.60;6.20;;;;;;;8.65;99.18;97967.02;439157;1249;138877;-64
2023/11/14 17:07:33;;;;;;;15.40;5.90;;;;;;;8.56;99.47;97953.58;436397;1250;138794;-62
2023/11/14 17:17:40;;;;;;;15.30;5.40;;;;;;;8.52;99.56;97951.30;436312;1248;138891;-63
2023/11/14 17:27:46;;;;;;;13.10;5.50;;;;;;;8.47;99.83;97941.52;436169;1253;140879;-63
2023/11/14 17:37:52;;;;;;;39.70;14.40;;;;;;;8.48;99.99;97949.12;437100;1251;139156;-63
2023/11/14 17:47:58;;;;;;;14.10;6.00;;;;;;;8.47;99.96;97951.11;436289;1250;138783;-63
2023/11/14 17:58:05;;;;;;;13.30;5.00;;;;;;;8.45;99.95;97960.91;435684;1254;138778;-63
2023/11/14 18:08:12;;;;;;;12.50;6.20;;;;;;;8.49;99.94;97965.09;435718;1254;140578;-63
2023/11/14 18:18:19;;;;;;;11.30;4.80;;;;;;;8.53;99.90;97962.90;435612;1251;142126;-62
2023/11/14 18:28:27;;;;;;;11.20;5.90;;;;;;;8.54;99.83;97953.95;435895;1250;140504;-62
2023/11/14 18:38:31;;;;;;;;;;;;;;;8.56;99.78;97944.37;435931;1250;138762;-63
2023/11/14 18:48:37;;;;;;;11.10;4.40;;;;;;;8.60;99.79;97942.28;435571;1253;126035;-63
2023/11/14 18:58:44;;;;;;;14.40;5.60;;;;;;;8.68;99.58;97937.58;435533;1253;139832;-63
2023/11/14 19:08:50;;;;;;;19.10;7.70;;;;;;;8.75;99.58;97934.81;435714;1251;139245;-62
2023/11/14 19:18:57;;;;;;;6.60;4.20;;;;;;;8.82;99.35;97932.63;437636;1251;138753;-64
2023/11/14 19:29:03;;;;;;;10.50;4.40;;;;;;;8.87;99.18;97923.48;435488;1253;138794;-62
2023/11/14 19:39:09;;;;;;;12.60;5.70;;;;;;;8.83;98.72;97912.62;435654;1253;138840;-63
2023/11/14 19:49:16;;;;;;;12.80;5.50;;;;;;;8.59;98.34;97905.02;436133;1250;139006;-63
2023/11/14 19:59:22;;;;;;;13.20;6.40;;;;;;;8.37;98.80;97900.84;435776;1250;138956;-63
2023/11/14 20:09:29;;;;;;;10.10;5.20;;;;;;;8.28;99.23;97902.75;436154;1253;138890;-62
2023/11/14 20:19:35;;;;;;;10.30;4.10;;;;;;;8.23;99.57;97903.52;435832;1251;139713;-63
2023/11/14 20:29:42;;;;;;;7.50;4.10;;;;;;;8.22;99.97;97898.20;436608;1251;140900;-62
2023/11/14 20:39:48;;;;;;;12.10;4.50;;;;;;;8.28;100.00;97899.80;435622;1251;139767;-64
2023/11/14 20:49:55;;;;;;;16.20;6.70;;;;;;;8.36;100.00;97892.04;436621;1250;139092;-65
2023/11/14 21:00:03;;;;;;;10.90;4.60;;;;;;;8.38;100.00;97887.52;436237;1253;140098;-63
2023/11/14 21:10:11;;;;;;;8.60;4.00;;;;;;;8.39;100.00;97899.42;436005;1250;139606;-63
2023/11/14 21:20:16;;;;;;;;;;;;;;;8.29;100.00;97906.05;435823;1253;138828;-64
2023/11/14 21:30:25;;;;;;;12.10;5.30;;;;;;;8.08;100.00;97908.96;435926;1250;125154;-63
2023/11/14 21:40:32;;;;;;;12.40;5.40;;;;;;;7.93;100.00;97906.29;435602;1250;139137;-64
2023/11/14 21:50:38;;;;;;;9.40;4.70;;;;;;;7.88;100.00;97902.03;435861;1249;138936;-62
2023/11/14 22:00:47;;;;;;;6.10;4.00;;;;;;;7.83;100.00;97896.27;436523;1254;138949;-63
2023/11/14 22:10:54;;;;;;;6.70;5.10;;;;;;;7.77;100.00;97891.67;435701;1251;140486;-62
2023/11/14 22:21:00;;;;;;;9.10;4.20;;;;;;;7.76;100.00;97890.17;437193;1251;138462;-63
2023/11/14 22:31:07;;;;;;;8.30;4.10;;;;;;;7.79;100.00;97893.96;435984;1251;139692;-63
2023/11/14 22:41:16;;;;;;;7.00;4.60;;;;;;;7.84;100.00;97892.55;436399;1249;138703;-63
2023/11/14 22:51:22;;;;;;;7.90;4.10;;;;;;;7.86;100.00;97897.77;435821;1254;138687;-63
2023/11/14 23:01:36;;;;;;;5.20;3.30;;;;;;;7.88;100.00;97897.13;435782;1250;138795;-63
2023/11/14 23:11:43;;;;;;;7.70;3.60;;;;;;;7.88;100.00;97895.92;435944;1251;139262;-63
2023/11/14 23:21:52;;;;;;;7.30;3.50;;;;;;;7.71;100.00;97894.40;435610;1253;138662;-63
2023/11/14 23:32:05;;;;;;;9.50;4.80;;;;;;;7.68;100.00;97895.88;435941;1251;138830;-62
2023/11/14 23:42:12;;;;;;;8.90;3.90;;;;;;;7.75;100.00;97884.70;435974;1254;138891;-67
2023/11/14 23:52:18;;;;;;;7.00;3.70;;;;;;;7.84;100.00;97878.21;435826;1250;138953;-63
